sensor_id;sensor_type;location;lat;lon;timestamp;P1;durP1;ratioP1;P2;durP2;ratioP2
1509;SDS011;746;48.688;9.428;2024-01-15T00:01:51;8.90;;;8.00;;
1509;SDS011;746;48.688;9.428;2024-01-15T00:04:12;8.47;;;7.63;;
1509;SDS011;746;48.688;9.428;2024-01-15T00:06:34;7.50;;;6.90;;
1509;SDS011;746;48.688;9.428;2024-01-15T00:08:55;8.10;;;7.30;;
1509;SDS011;746;48.688;9.428;2024-01-15T00:11:17;7.47;;;6.80;;
1509;SDS011;746;48.688;9.428;2024-01-15T00:13:38;8.30;;;7.50;;
1509;SDS011;746;48.688;9.428;2024-01-15T00:15:59;7.47;;;6.77;;
1509;SDS011;746;48.688;9.428;2024-01-15T00:18:22;7.77;;;7.07;;
1509;SDS011;746;48.688;9.428;2024-01-15T00:20:44;8.10;;;7.40;;
1509;SDS011;746;48.688;9.428;2024-01-15T00:23:06;7.37;;;6.73;;
1509;SDS011;746;48.688;9.428;2024-01-15T00:25:28;7.60;;;6.90;;
1509;SDS011;746;48.688;9.428;2024-01-15T00:27:49;8.27;;;7.03;;
1509;SDS011;746;48.688;9.428;2024-01-15T00:30:11;7.57;;;6.87;;
1509;SDS011;746;48.688;9.428;2024-01-15T00:32:33;7.60;;;6.83;;
1509;SDS011;746;48.688;9.428;2024-01-15T00:34:56;7.90;;;7.10;;
1509;SDS011;746;48.688;9.428;2024-01-15T00:37:18;7.70;;;7.00;;
1509;SDS011;746;48.688;9.428;2024-01-15T00:39:39;7.80;;;7.10;;
1509;SDS011;746;48.688;9.428;2024-01-15T00:42:02;8.03;;;7.33;;
1509;SDS011;746;48.688;9.428;2024-01-15T00:44:24;7.13;;;6.43;;
1509;SDS011;746;48.688;9.428;2024-01-15T00:46:45;7.40;;;6.70;;
1509;SDS011;746;48.688;9.428;2024-01-15T00:49:07;7.87;;;7.17;;
1509;SDS011;746;48.688;9.428;2024-01-15T00:51:29;7.30;;;6.57;;
1509;SDS011;746;48.688;9.428;2024-01-15T00:53:51;7.30;;;6.70;;
1509;SDS011;746;48.688;9.428;2024-01-15T00:56:13;8.03;;;7.23;;
1509;SDS011;746;48.688;9.428;2024-01-15T00:58:34;7.63;;;6.93;;
1509;SDS011;746;48.688;9.428;2024-01-15T01:00:55;7.00;;;6.40;;
1509;SDS011;746;48.688;9.428;2024-01-15T01:03:17;7.30;;;6.70;;
1509;SDS011;746;48.688;9.428;2024-01-15T01:05:38;7.10;;;6.50;;
1509;SDS011;746;48.688;9.428;2024-01-15T01:08:01;7.20;;;6.60;;
1509;SDS011;746;48.688;9.428;2024-01-15T01:10:23;7.33;;;6.73;;
1509;SDS011;746;48.688;9.428;2024-01-15T01:12:44;7.10;;;6.50;;
1509;SDS011;746;48.688;9.428;2024-01-15T01:15:06;7.00;;;6.40;;
1509;SDS011;746;48.688;9.428;2024-01-15T01:17:27;7.50;;;6.80;;
1509;SDS011;746;48.688;9.428;2024-01-15T01:19:50;8.13;;;7.33;;
1509;SDS011;746;48.688;9.428;2024-01-15T01:22:12;7.37;;;6.67;;
1509;SDS011;746;48.688;9.428;2024-01-15T01:24:35;7.10;;;6.50;;
1509;SDS011;746;48.688;9.428;2024-01-15T01:26:56;7.30;;;6.60;;
1509;SDS011;746;48.688;9.428;2024-01-15T01:29:18;7.90;;;7.10;;
1509;SDS011;746;48.688;9.428;2024-01-15T01:31:42;7.10;;;6.50;;
1509;SDS011;746;48.688;9.428;2024-01-15T01:34:04;6.67;;;6.13;;
1509;SDS011;746;48.688;9.428;2024-01-15T01:36:25;7.30;;;6.60;;
1509;SDS011;746;48.688;9.428;2024-01-15T01:38:47;7.57;;;6.87;;
1509;SDS011;746;48.688;9.428;2024-01-15T01:41:09;6.57;;;6.07;;
1509;SDS011;746;48.688;9.428;2024-01-15T01:43:31;7.57;;;6.87;;
1509;SDS011;746;48.688;9.428;2024-01-15T01:45:52;7.20;;;6.60;;
1509;SDS011;746;48.688;9.428;2024-01-15T01:48:16;7.30;;;6.70;;
1509;SDS011;746;48.688;9.428;2024-01-15T01:50:38;6.63;;;6.03;;
1509;SDS011;746;48.688;9.428;2024-01-15T01:52:59;6.83;;;6.23;;
1509;SDS011;746;48.688;9.428;2024-01-15T01:55:21;6.80;;;6.27;;
1509;SDS011;746;48.688;9.428;2024-01-15T01:57:44;7.10;;;6.50;;
1509;SDS011;746;48.688;9.428;2024-01-15T02:00:06;6.70;;;6.10;;
1509;SDS011;746;48.688;9.428;2024-01-15T02:02:28;7.17;;;6.57;;
1509;SDS011;746;48.688;9.428;2024-01-15T02:04:50;6.70;;;6.00;;
1509;SDS011;746;48.688;9.428;2024-01-15T02:07:12;7.07;;;6.40;;
1509;SDS011;746;48.688;9.428;2024-01-15T02:09:33;6.67;;;6.07;;
1509;SDS011;746;48.688;9.428;2024-01-15T02:11:55;6.37;;;5.87;;
1509;SDS011;746;48.688;9.428;2024-01-15T02:14:18;6.10;;;5.60;;
1509;SDS011;746;48.688;9.428;2024-01-15T02:16:40;6.20;;;5.70;;
1509;SDS011;746;48.688;9.428;2024-01-15T02:19:01;6.67;;;6.17;;
1509;SDS011;746;48.688;9.428;2024-01-15T02:21:23;6.00;;;5.50;;
1509;SDS011;746;48.688;9.428;2024-01-15T02:23:48;7.00;;;6.40;;
1509;SDS011;746;48.688;9.428;2024-01-15T02:26:09;6.83;;;6.23;;
1509;SDS011;746;48.688;9.428;2024-01-15T02:28:30;6.50;;;6.00;;
1509;SDS011;746;48.688;9.428;2024-01-15T02:30:54;6.83;;;6.23;;
1509;SDS011;746;48.688;9.428;2024-01-15T02:33:15;6.47;;;5.87;;
1509;SDS011;746;48.688;9.428;2024-01-15T02:35:36;6.30;;;5.80;;
1509;SDS011;746;48.688;9.428;2024-01-15T02:37:58;6.33;;;5.83;;
1509;SDS011;746;48.688;9.428;2024-01-15T02:40:21;6.10;;;5.60;;
1509;SDS011;746;48.688;9.428;2024-01-15T02:42:43;6.30;;;5.70;;
1509;SDS011;746;48.688;9.428;2024-01-15T02:45:04;6.43;;;5.90;;
1509;SDS011;746;48.688;9.428;2024-01-15T02:47:26;6.53;;;5.93;;
1509;SDS011;746;48.688;9.428;2024-01-15T02:49:47;6.10;;;5.60;;
1509;SDS011;746;48.688;9.428;2024-01-15T02:52:09;6.33;;;5.73;;
1509;SDS011;746;48.688;9.428;2024-01-15T02:54:30;6.20;;;5.70;;
1509;SDS011;746;48.688;9.428;2024-01-15T02:56:53;6.73;;;6.03;;
1509;SDS011;746;48.688;9.428;2024-01-15T02:59:14;6.27;;;5.77;;
1509;SDS011;746;48.688;9.428;2024-01-15T03:01:36;6.67;;;6.07;;
1509;SDS011;746;48.688;9.428;2024-01-15T03:03:57;5.67;;;5.27;;
1509;SDS011;746;48.688;9.428;2024-01-15T03:06:19;6.07;;;5.57;;
1509;SDS011;746;48.688;9.428;2024-01-15T03:08:40;5.80;;;5.30;;
1509;SDS011;746;48.688;9.428;2024-01-15T03:11:01;6.17;;;5.67;;
1509;SDS011;746;48.688;9.428;2024-01-15T03:13:24;6.43;;;5.83;;
1509;SDS011;746;48.688;9.428;2024-01-15T03:15:45;5.47;;;4.97;;
1509;SDS011;746;48.688;9.428;2024-01-15T03:18:07;6.30;;;5.80;;
1509;SDS011;746;48.688;9.428;2024-01-15T03:20:29;6.07;;;5.57;;
1509;SDS011;746;48.688;9.428;2024-01-15T03:22:51;5.60;;;5.10;;
1509;SDS011;746;48.688;9.428;2024-01-15T03:25:13;5.80;;;5.30;;
1509;SDS011;746;48.688;9.428;2024-01-15T03:27:35;5.37;;;4.97;;
1509;SDS011;746;48.688;9.428;2024-01-15T03:29:57;5.33;;;4.93;;
1509;SDS011;746;48.688;9.428;2024-01-15T03:32:19;6.43;;;5.87;;
1509;SDS011;746;48.688;9.428;2024-01-15T03:34:40;6.10;;;5.53;;
1509;SDS011;746;48.688;9.428;2024-01-15T03:37:02;6.00;;;5.40;;
1509;SDS011;746;48.688;9.428;2024-01-15T03:39:24;5.80;;;5.30;;
1509;SDS011;746;48.688;9.428;2024-01-15T03:41:45;5.53;;;5.13;;
1509;SDS011;746;48.688;9.428;2024-01-15T03:44:06;5.90;;;5.40;;
1509;SDS011;746;48.688;9.428;2024-01-15T03:46:29;5.53;;;5.13;;
1509;SDS011;746;48.688;9.428;2024-01-15T03:48:50;5.57;;;5.07;;
1509;SDS011;746;48.688;9.428;2024-01-15T03:51:12;5.50;;;5.00;;
1509;SDS011;746;48.688;9.428;2024-01-15T03:53:37;5.40;;;5.00;;
1509;SDS011;746;48.688;9.428;2024-01-15T03:55:59;6.13;;;5.57;;
1509;SDS011;746;48.688;9.428;2024-01-15T03:58:20;5.20;;;4.70;;
1509;SDS011;746;48.688;9.428;2024-01-15T04:00:42;5.57;;;5.07;;
1509;SDS011;746;48.688;9.428;2024-01-15T04:03:05;5.77;;;5.27;;
1509;SDS011;746;48.688;9.428;2024-01-15T04:05:27;5.43;;;4.97;;
1509;SDS011;746;48.688;9.428;2024-01-15T04:07:48;5.67;;;5.27;;
1509;SDS011;746;48.688;9.428;2024-01-15T04:10:09;5.77;;;5.37;;
1509;SDS011;746;48.688;9.428;2024-01-15T04:12:31;5.63;;;5.17;;
1509;SDS011;746;48.688;9.428;2024-01-15T04:14:52;5.20;;;4.80;;
1509;SDS011;746;48.688;9.428;2024-01-15T04:17:13;5.40;;;5.00;;
1509;SDS011;746;48.688;9.428;2024-01-15T04:19:36;5.60;;;5.20;;
1509;SDS011;746;48.688;9.428;2024-01-15T04:21:57;5.33;;;4.93;;
1509;SDS011;746;48.688;9.428;2024-01-15T04:24:19;5.93;;;5.43;;
1509;SDS011;746;48.688;9.428;2024-01-15T04:26:41;5.43;;;5.03;;
1509;SDS011;746;48.688;9.428;2024-01-15T04:29:03;5.50;;;5.10;;
1509;SDS011;746;48.688;9.428;2024-01-15T04:31:24;4.90;;;4.50;;
1509;SDS011;746;48.688;9.428;2024-01-15T04:33:47;5.30;;;4.90;;
1509;SDS011;746;48.688;9.428;2024-01-15T04:36:43;5.53;;;5.10;;
1509;SDS011;746;48.688;9.428;2024-01-15T04:39:04;4.90;;;4.50;;
1509;SDS011;746;48.688;9.428;2024-01-15T04:41:26;5.27;;;4.87;;
1509;SDS011;746;48.688;9.428;2024-01-15T04:43:47;5.30;;;4.90;;
1509;SDS011;746;48.688;9.428;2024-01-15T04:46:08;5.57;;;5.07;;
1509;SDS011;746;48.688;9.428;2024-01-15T04:48:30;5.60;;;5.10;;
1509;SDS011;746;48.688;9.428;2024-01-15T04:50:51;5.43;;;5.03;;
1509;SDS011;746;48.688;9.428;2024-01-15T04:53:13;5.27;;;4.87;;
1509;SDS011;746;48.688;9.428;2024-01-15T04:55:35;5.43;;;4.97;;
1509;SDS011;746;48.688;9.428;2024-01-15T04:57:56;5.40;;;5.00;;
1509;SDS011;746;48.688;9.428;2024-01-15T05:00:18;5.20;;;4.80;;
1509;SDS011;746;48.688;9.428;2024-01-15T05:02:40;4.90;;;4.50;;
1509;SDS011;746;48.688;9.428;2024-01-15T05:05:01;5.07;;;4.67;;
1509;SDS011;746;48.688;9.428;2024-01-15T05:07:23;5.40;;;5.00;;
1509;SDS011;746;48.688;9.428;2024-01-15T05:09:45;5.00;;;4.63;;
1509;SDS011;746;48.688;9.428;2024-01-15T05:12:07;4.87;;;4.47;;
1509;SDS011;746;48.688;9.428;2024-01-15T05:14:29;5.20;;;4.80;;
1509;SDS011;746;48.688;9.428;2024-01-15T05:16:50;5.17;;;4.77;;
1509;SDS011;746;48.688;9.428;2024-01-15T05:19:11;4.97;;;4.57;;
1509;SDS011;746;48.688;9.428;2024-01-15T05:21:33;5.17;;;4.77;;
1509;SDS011;746;48.688;9.428;2024-01-15T05:23:55;5.20;;;4.80;;
1509;SDS011;746;48.688;9.428;2024-01-15T05:26:17;5.30;;;4.90;;
1509;SDS011;746;48.688;9.428;2024-01-15T05:28:40;5.20;;;4.80;;
1509;SDS011;746;48.688;9.428;2024-01-15T05:31:02;5.77;;;5.27;;
1509;SDS011;746;48.688;9.428;2024-01-15T05:33:24;5.17;;;4.80;;
1509;SDS011;746;48.688;9.428;2024-01-15T05:35:45;5.00;;;4.60;;
1509;SDS011;746;48.688;9.428;2024-01-15T05:38:06;4.67;;;4.33;;
1509;SDS011;746;48.688;9.428;2024-01-15T05:40:28;4.77;;;4.37;;
1509;SDS011;746;48.688;9.428;2024-01-15T05:42:51;4.90;;;4.50;;
1509;SDS011;746;48.688;9.428;2024-01-15T05:45:12;6.63;;;4.87;;
1509;SDS011;746;48.688;9.428;2024-01-15T05:47:34;8.43;;;5.17;;
1509;SDS011;746;48.688;9.428;2024-01-15T05:49:56;7.93;;;5.30;;
1509;SDS011;746;48.688;9.428;2024-01-15T05:52:18;6.07;;;4.97;;
1509;SDS011;746;48.688;9.428;2024-01-15T05:54:40;10.17;;;5.20;;
1509;SDS011;746;48.688;9.428;2024-01-15T05:57:02;5.40;;;4.57;;
1509;SDS011;746;48.688;9.428;2024-01-15T05:59:25;7.73;;;4.90;;
1509;SDS011;746;48.688;9.428;2024-01-15T06:01:46;4.80;;;4.40;;
1509;SDS011;746;48.688;9.428;2024-01-15T06:04:08;7.30;;;4.83;;
1509;SDS011;746;48.688;9.428;2024-01-15T06:06:30;5.63;;;4.80;;
1509;SDS011;746;48.688;9.428;2024-01-15T06:08:51;4.60;;;4.20;;
1509;SDS011;746;48.688;9.428;2024-01-15T06:11:13;5.27;;;4.60;;
1509;SDS011;746;48.688;9.428;2024-01-15T06:13:34;5.07;;;4.57;;
1509;SDS011;746;48.688;9.428;2024-01-15T06:15:57;4.80;;;4.30;;
1509;SDS011;746;48.688;9.428;2024-01-15T06:18:19;5.03;;;4.63;;
1509;SDS011;746;48.688;9.428;2024-01-15T06:20:41;5.27;;;4.73;;
1509;SDS011;746;48.688;9.428;2024-01-15T06:23:02;4.57;;;4.23;;
1509;SDS011;746;48.688;9.428;2024-01-15T06:25:24;5.00;;;4.57;;
1509;SDS011;746;48.688;9.428;2024-01-15T06:27:45;5.07;;;4.60;;
1509;SDS011;746;48.688;9.428;2024-01-15T06:30:08;5.60;;;4.60;;
1509;SDS011;746;48.688;9.428;2024-01-15T06:32:32;7.37;;;4.47;;
1509;SDS011;746;48.688;9.428;2024-01-15T06:34:54;5.30;;;4.50;;
1509;SDS011;746;48.688;9.428;2024-01-15T06:37:15;4.90;;;4.50;;
1509;SDS011;746;48.688;9.428;2024-01-15T06:39:39;4.83;;;4.43;;
1509;SDS011;746;48.688;9.428;2024-01-15T06:42:00;5.00;;;4.60;;
1509;SDS011;746;48.688;9.428;2024-01-15T06:44:22;5.57;;;4.40;;
1509;SDS011;746;48.688;9.428;2024-01-15T06:46:43;5.30;;;4.87;;
1509;SDS011;746;48.688;9.428;2024-01-15T06:49:06;4.83;;;4.23;;
1509;SDS011;746;48.688;9.428;2024-01-15T06:51:28;4.70;;;4.30;;
1509;SDS011;746;48.688;9.428;2024-01-15T06:53:50;4.57;;;4.17;;
1509;SDS011;746;48.688;9.428;2024-01-15T06:56:11;4.83;;;4.43;;
1509;SDS011;746;48.688;9.428;2024-01-15T06:58:33;5.10;;;4.60;;
1509;SDS011;746;48.688;9.428;2024-01-15T07:00:55;4.63;;;4.23;;
1509;SDS011;746;48.688;9.428;2024-01-15T07:03:16;4.77;;;4.40;;
1509;SDS011;746;48.688;9.428;2024-01-15T07:05:40;4.60;;;4.30;;
1509;SDS011;746;48.688;9.428;2024-01-15T07:08:01;4.77;;;4.40;;
1509;SDS011;746;48.688;9.428;2024-01-15T07:10:23;4.87;;;4.47;;
1509;SDS011;746;48.688;9.428;2024-01-15T07:12:44;4.77;;;4.40;;
1509;SDS011;746;48.688;9.428;2024-01-15T07:15:06;4.80;;;4.40;;
1509;SDS011;746;48.688;9.428;2024-01-15T07:17:28;4.60;;;4.20;;
1509;SDS011;746;48.688;9.428;2024-01-15T07:19:51;4.63;;;4.23;;
1509;SDS011;746;48.688;9.428;2024-01-15T07:22:14;4.40;;;4.00;;
1509;SDS011;746;48.688;9.428;2024-01-15T07:24:37;4.93;;;4.43;;
1509;SDS011;746;48.688;9.428;2024-01-15T07:26:58;4.60;;;4.30;;
1509;SDS011;746;48.688;9.428;2024-01-15T07:29:20;4.40;;;4.00;;
1509;SDS011;746;48.688;9.428;2024-01-15T07:31:46;4.43;;;4.13;;
1509;SDS011;746;48.688;9.428;2024-01-15T07:34:09;5.33;;;4.20;;
1509;SDS011;746;48.688;9.428;2024-01-15T07:36:31;4.80;;;4.40;;
1509;SDS011;746;48.688;9.428;2024-01-15T07:38:54;4.20;;;3.90;;
1509;SDS011;746;48.688;9.428;2024-01-15T07:41:15;4.40;;;4.00;;
1509;SDS011;746;48.688;9.428;2024-01-15T07:43:37;4.93;;;4.20;;
1509;SDS011;746;48.688;9.428;2024-01-15T07:46:00;4.70;;;4.33;;
1509;SDS011;746;48.688;9.428;2024-01-15T07:48:22;4.50;;;4.20;;
1509;SDS011;746;48.688;9.428;2024-01-15T07:50:44;4.80;;;4.40;;
1509;SDS011;746;48.688;9.428;2024-01-15T07:53:05;4.33;;;3.93;;
1509;SDS011;746;48.688;9.428;2024-01-15T07:55:28;4.43;;;4.07;;
1509;SDS011;746;48.688;9.428;2024-01-15T07:57:49;4.50;;;4.10;;
1509;SDS011;746;48.688;9.428;2024-01-15T08:00:22;4.63;;;4.33;;
1509;SDS011;746;48.688;9.428;2024-01-15T08:02:43;4.70;;;4.13;;
1509;SDS011;746;48.688;9.428;2024-01-15T08:05:04;4.33;;;4.03;;
1509;SDS011;746;48.688;9.428;2024-01-15T08:07:26;4.30;;;4.00;;
1509;SDS011;746;48.688;9.428;2024-01-15T08:09:48;4.03;;;3.73;;
1509;SDS011;746;48.688;9.428;2024-01-15T08:12:11;4.13;;;3.83;;
1509;SDS011;746;48.688;9.428;2024-01-15T08:14:32;4.37;;;4.07;;
1509;SDS011;746;48.688;9.428;2024-01-15T08:16:54;4.03;;;3.73;;
1509;SDS011;746;48.688;9.428;2024-01-15T08:19:16;4.87;;;4.03;;
1509;SDS011;746;48.688;9.428;2024-01-15T08:21:38;4.30;;;4.00;;
1509;SDS011;746;48.688;9.428;2024-01-15T08:23:59;4.17;;;3.87;;
1509;SDS011;746;48.688;9.428;2024-01-15T08:26:22;3.93;;;3.63;;
1509;SDS011;746;48.688;9.428;2024-01-15T08:28:45;4.63;;;4.23;;
1509;SDS011;746;48.688;9.428;2024-01-15T08:31:06;4.00;;;3.80;;
1509;SDS011;746;48.688;9.428;2024-01-15T08:33:29;4.30;;;3.90;;
1509;SDS011;746;48.688;9.428;2024-01-15T08:35:51;4.30;;;4.00;;
1509;SDS011;746;48.688;9.428;2024-01-15T08:38:12;4.03;;;3.73;;
1509;SDS011;746;48.688;9.428;2024-01-15T08:40:34;4.03;;;3.73;;
1509;SDS011;746;48.688;9.428;2024-01-15T08:42:56;4.03;;;3.73;;
1509;SDS011;746;48.688;9.428;2024-01-15T08:45:18;4.20;;;3.80;;
1509;SDS011;746;48.688;9.428;2024-01-15T08:47:41;4.40;;;4.10;;
1509;SDS011;746;48.688;9.428;2024-01-15T08:50:03;4.30;;;4.00;;
1509;SDS011;746;48.688;9.428;2024-01-15T08:52:26;4.10;;;3.73;;
1509;SDS011;746;48.688;9.428;2024-01-15T08:54:47;4.20;;;3.90;;
1509;SDS011;746;48.688;9.428;2024-01-15T08:57:09;3.73;;;3.40;;
1509;SDS011;746;48.688;9.428;2024-01-15T08:59:31;4.40;;;4.10;;
1509;SDS011;746;48.688;9.428;2024-01-15T09:01:54;3.70;;;3.50;;
1509;SDS011;746;48.688;9.428;2024-01-15T09:04:17;4.10;;;3.80;;
1509;SDS011;746;48.688;9.428;2024-01-15T09:06:39;4.40;;;4.00;;
1509;SDS011;746;48.688;9.428;2024-01-15T09:09:00;4.23;;;3.93;;
1509;SDS011;746;48.688;9.428;2024-01-15T09:11:22;3.53;;;3.27;;
1509;SDS011;746;48.688;9.428;2024-01-15T09:13:44;4.10;;;3.80;;
1509;SDS011;746;48.688;9.428;2024-01-15T09:16:06;3.80;;;3.60;;
1509;SDS011;746;48.688;9.428;2024-01-15T09:18:29;4.40;;;4.10;;
1509;SDS011;746;48.688;9.428;2024-01-15T09:20:52;3.80;;;3.60;;
1509;SDS011;746;48.688;9.428;2024-01-15T09:23:13;4.10;;;3.80;;
1509;SDS011;746;48.688;9.428;2024-01-15T09:25:34;3.70;;;3.50;;
1509;SDS011;746;48.688;9.428;2024-01-15T09:27:56;4.10;;;3.80;;
1509;SDS011;746;48.688;9.428;2024-01-15T09:30:18;3.80;;;3.50;;
1509;SDS011;746;48.688;9.428;2024-01-15T09:32:40;3.83;;;3.53;;
1509;SDS011;746;48.688;9.428;2024-01-15T09:35:04;3.60;;;3.40;;
1509;SDS011;746;48.688;9.428;2024-01-15T09:37:26;3.87;;;3.67;;
1509;SDS011;746;48.688;9.428;2024-01-15T09:40:04;3.70;;;3.40;;
1509;SDS011;746;48.688;9.428;2024-01-15T09:42:27;4.10;;;3.80;;
1509;SDS011;746;48.688;9.428;2024-01-15T09:44:49;3.60;;;3.40;;
1509;SDS011;746;48.688;9.428;2024-01-15T09:47:11;4.00;;;3.70;;
1509;SDS011;746;48.688;9.428;2024-01-15T09:49:33;3.80;;;3.60;;
1509;SDS011;746;48.688;9.428;2024-01-15T09:51:56;3.50;;;3.30;;
1509;SDS011;746;48.688;9.428;2024-01-15T09:54:30;3.67;;;3.47;;
1509;SDS011;746;48.688;9.428;2024-01-15T09:56:51;3.63;;;3.43;;
1509;SDS011;746;48.688;9.428;2024-01-15T09:59:13;3.93;;;3.63;;
1509;SDS011;746;48.688;9.428;2024-01-15T10:01:35;3.70;;;3.50;;
1509;SDS011;746;48.688;9.428;2024-01-15T10:03:58;3.70;;;3.50;;
1509;SDS011;746;48.688;9.428;2024-01-15T10:06:19;3.77;;;3.47;;
1509;SDS011;746;48.688;9.428;2024-01-15T10:08:45;3.57;;;3.33;;
1509;SDS011;746;48.688;9.428;2024-01-15T10:11:09;3.70;;;3.50;;
1509;SDS011;746;48.688;9.428;2024-01-15T10:13:30;3.53;;;3.27;;
1509;SDS011;746;48.688;9.428;2024-01-15T10:15:52;4.00;;;3.70;;
1509;SDS011;746;48.688;9.428;2024-01-15T10:18:14;3.80;;;3.50;;
1509;SDS011;746;48.688;9.428;2024-01-15T10:20:36;3.53;;;3.33;;
1509;SDS011;746;48.688;9.428;2024-01-15T10:22:57;3.33;;;3.13;;
1509;SDS011;746;48.688;9.428;2024-01-15T10:25:20;3.40;;;3.20;;
1509;SDS011;746;48.688;9.428;2024-01-15T10:27:47;3.47;;;3.27;;
1509;SDS011;746;48.688;9.428;2024-01-15T10:30:19;3.57;;;3.30;;
1509;SDS011;746;48.688;9.428;2024-01-15T10:32:41;3.80;;;3.60;;
1509;SDS011;746;48.688;9.428;2024-01-15T10:35:03;3.37;;;3.17;;
1509;SDS011;746;48.688;9.428;2024-01-15T10:37:25;3.50;;;3.30;;
1509;SDS011;746;48.688;9.428;2024-01-15T10:39:48;3.43;;;3.23;;
1509;SDS011;746;48.688;9.428;2024-01-15T10:42:12;3.50;;;3.20;;
1509;SDS011;746;48.688;9.428;2024-01-15T10:44:33;3.80;;;3.50;;
1509;SDS011;746;48.688;9.428;2024-01-15T10:46:55;3.67;;;3.47;;
1509;SDS011;746;48.688;9.428;2024-01-15T10:49:18;3.60;;;3.40;;
1509;SDS011;746;48.688;9.428;2024-01-15T10:51:40;3.50;;;3.30;;
1509;SDS011;746;48.688;9.428;2024-01-15T10:54:03;3.80;;;3.50;;
1509;SDS011;746;48.688;9.428;2024-01-15T10:56:25;3.93;;;3.63;;
1509;SDS011;746;48.688;9.428;2024-01-15T10:58:50;4.00;;;3.70;;
1509;SDS011;746;48.688;9.428;2024-01-15T11:01:12;3.97;;;3.67;;
1509;SDS011;746;48.688;9.428;2024-01-15T11:03:34;3.10;;;2.93;;
1509;SDS011;746;48.688;9.428;2024-01-15T11:05:57;3.50;;;3.30;;
1509;SDS011;746;48.688;9.428;2024-01-15T11:08:19;3.40;;;3.20;;
1509;SDS011;746;48.688;9.428;2024-01-15T11:10:42;3.30;;;3.10;;
1509;SDS011;746;48.688;9.428;2024-01-15T11:13:08;3.20;;;3.00;;
1509;SDS011;746;48.688;9.428;2024-01-15T11:15:32;3.30;;;3.10;;
1509;SDS011;746;48.688;9.428;2024-01-15T11:18:00;3.30;;;3.10;;
1509;SDS011;746;48.688;9.428;2024-01-15T11:20:25;3.37;;;3.17;;
1509;SDS011;746;48.688;9.428;2024-01-15T11:22:47;3.53;;;3.30;;
1509;SDS011;746;48.688;9.428;2024-01-15T11:25:12;3.07;;;2.87;;
1509;SDS011;746;48.688;9.428;2024-01-15T11:27:41;3.40;;;3.20;;
1509;SDS011;746;48.688;9.428;2024-01-15T11:30:03;3.40;;;3.20;;
1509;SDS011;746;48.688;9.428;2024-01-15T11:32:32;3.20;;;3.00;;
1509;SDS011;746;48.688;9.428;2024-01-15T11:34:56;3.40;;;3.20;;
1509;SDS011;746;48.688;9.428;2024-01-15T11:37:20;3.47;;;3.27;;
1509;SDS011;746;48.688;9.428;2024-01-15T11:39:44;3.30;;;3.10;;
1509;SDS011;746;48.688;9.428;2024-01-15T11:42:06;3.20;;;3.00;;
1509;SDS011;746;48.688;9.428;2024-01-15T11:44:28;3.07;;;2.90;;
1509;SDS011;746;48.688;9.428;2024-01-15T11:46:53;3.00;;;2.80;;
1509;SDS011;746;48.688;9.428;2024-01-15T11:49:25;3.20;;;3.00;;
1509;SDS011;746;48.688;9.428;2024-01-15T11:51:52;3.30;;;3.10;;
1509;SDS011;746;48.688;9.428;2024-01-15T11:54:14;3.30;;;3.10;;
1509;SDS011;746;48.688;9.428;2024-01-15T11:56:36;3.07;;;2.87;;
1509;SDS011;746;48.688;9.428;2024-01-15T11:58:57;3.30;;;3.10;;
1509;SDS011;746;48.688;9.428;2024-01-15T12:01:22;2.80;;;2.63;;
1509;SDS011;746;48.688;9.428;2024-01-15T12:03:44;3.00;;;2.80;;
1509;SDS011;746;48.688;9.428;2024-01-15T12:06:09;3.20;;;3.00;;
1509;SDS011;746;48.688;9.428;2024-01-15T12:08:32;3.10;;;2.90;;
1509;SDS011;746;48.688;9.428;2024-01-15T12:10:53;3.23;;;3.03;;
1509;SDS011;746;48.688;9.428;2024-01-15T12:13:14;3.07;;;2.87;;
1509;SDS011;746;48.688;9.428;2024-01-15T12:15:37;2.60;;;2.50;;
1509;SDS011;746;48.688;9.428;2024-01-15T12:18:01;3.17;;;2.97;;
1509;SDS011;746;48.688;9.428;2024-01-15T12:20:24;3.77;;;3.00;;
1509;SDS011;746;48.688;9.428;2024-01-15T12:22:47;3.10;;;2.90;;
1509;SDS011;746;48.688;9.428;2024-01-15T12:25:21;3.47;;;2.80;;
1509;SDS011;746;48.688;9.428;2024-01-15T12:27:42;3.20;;;3.00;;
1509;SDS011;746;48.688;9.428;2024-01-15T12:30:05;3.10;;;2.53;;
1509;SDS011;746;48.688;9.428;2024-01-15T12:32:27;3.20;;;3.00;;
1509;SDS011;746;48.688;9.428;2024-01-15T12:34:48;3.10;;;2.90;;
1509;SDS011;746;48.688;9.428;2024-01-15T12:37:10;2.80;;;2.70;;
1509;SDS011;746;48.688;9.428;2024-01-15T12:39:34;2.90;;;2.70;;
1509;SDS011;746;48.688;9.428;2024-01-15T12:41:56;3.20;;;3.00;;
1509;SDS011;746;48.688;9.428;2024-01-15T12:44:17;2.70;;;2.60;;
1509;SDS011;746;48.688;9.428;2024-01-15T12:46:39;3.17;;;2.97;;
1509;SDS011;746;48.688;9.428;2024-01-15T12:49:00;2.83;;;2.70;;
1509;SDS011;746;48.688;9.428;2024-01-15T12:51:24;2.90;;;2.70;;
1509;SDS011;746;48.688;9.428;2024-01-15T12:53:45;2.57;;;2.47;;
1509;SDS011;746;48.688;9.428;2024-01-15T12:56:08;2.97;;;2.77;;
1509;SDS011;746;48.688;9.428;2024-01-15T12:58:30;3.00;;;2.80;;
1509;SDS011;746;48.688;9.428;2024-01-15T13:00:51;3.27;;;3.07;;
1509;SDS011;746;48.688;9.428;2024-01-15T13:03:13;3.07;;;2.90;;
1509;SDS011;746;48.688;9.428;2024-01-15T13:05:34;2.57;;;2.47;;
1509;SDS011;746;48.688;9.428;2024-01-15T13:07:57;2.70;;;2.60;;
1509;SDS011;746;48.688;9.428;2024-01-15T13:10:19;3.00;;;2.80;;
1509;SDS011;746;48.688;9.428;2024-01-15T13:12:46;2.93;;;2.73;;
1509;SDS011;746;48.688;9.428;2024-01-15T13:15:07;2.43;;;2.33;;
1509;SDS011;746;48.688;9.428;2024-01-15T13:17:33;2.83;;;2.70;;
1509;SDS011;746;48.688;9.428;2024-01-15T13:19:55;2.63;;;2.53;;
1509;SDS011;746;48.688;9.428;2024-01-15T13:22:17;2.50;;;2.40;;
1509;SDS011;746;48.688;9.428;2024-01-15T13:24:38;3.10;;;2.90;;
1509;SDS011;746;48.688;9.428;2024-01-15T13:26:59;2.60;;;2.50;;
1509;SDS011;746;48.688;9.428;2024-01-15T13:29:22;2.70;;;2.60;;
1509;SDS011;746;48.688;9.428;2024-01-15T13:31:43;2.70;;;2.60;;
1509;SDS011;746;48.688;9.428;2024-01-15T13:34:06;2.63;;;2.53;;
1509;SDS011;746;48.688;9.428;2024-01-15T13:36:29;2.70;;;2.60;;
1509;SDS011;746;48.688;9.428;2024-01-15T13:38:51;2.80;;;2.70;;
1509;SDS011;746;48.688;9.428;2024-01-15T13:41:13;2.80;;;2.70;;
1509;SDS011;746;48.688;9.428;2024-01-15T13:43:35;2.60;;;2.50;;
1509;SDS011;746;48.688;9.428;2024-01-15T13:45:58;2.63;;;2.53;;
1509;SDS011;746;48.688;9.428;2024-01-15T13:48:20;2.60;;;2.50;;
1509;SDS011;746;48.688;9.428;2024-01-15T13:50:42;2.83;;;2.73;;
1509;SDS011;746;48.688;9.428;2024-01-15T13:53:03;2.60;;;2.50;;
1509;SDS011;746;48.688;9.428;2024-01-15T13:55:25;2.73;;;2.63;;
1509;SDS011;746;48.688;9.428;2024-01-15T13:57:47;2.57;;;2.47;;
1509;SDS011;746;48.688;9.428;2024-01-15T14:00:09;2.60;;;2.50;;
1509;SDS011;746;48.688;9.428;2024-01-15T14:02:34;2.80;;;2.60;;
1509;SDS011;746;48.688;9.428;2024-01-15T14:04:56;2.60;;;2.50;;
1509;SDS011;746;48.688;9.428;2024-01-15T14:07:17;2.77;;;2.60;;
1509;SDS011;746;48.688;9.428;2024-01-15T14:09:40;2.70;;;2.60;;
1509;SDS011;746;48.688;9.428;2024-01-15T14:12:01;2.60;;;2.50;;
1509;SDS011;746;48.688;9.428;2024-01-15T14:14:23;2.63;;;2.53;;
1509;SDS011;746;48.688;9.428;2024-01-15T14:16:45;2.57;;;2.47;;
1509;SDS011;746;48.688;9.428;2024-01-15T14:19:08;2.60;;;2.50;;
1509;SDS011;746;48.688;9.428;2024-01-15T14:21:30;2.47;;;2.37;;
1509;SDS011;746;48.688;9.428;2024-01-15T14:23:52;2.47;;;2.37;;
1509;SDS011;746;48.688;9.428;2024-01-15T14:26:13;2.40;;;2.30;;
1509;SDS011;746;48.688;9.428;2024-01-15T14:28:36;2.67;;;2.57;;
1509;SDS011;746;48.688;9.428;2024-01-15T14:30:58;3.07;;;2.87;;
1509;SDS011;746;48.688;9.428;2024-01-15T14:33:20;2.60;;;2.50;;
1509;SDS011;746;48.688;9.428;2024-01-15T14:35:42;2.53;;;2.43;;
1509;SDS011;746;48.688;9.428;2024-01-15T14:38:04;2.37;;;2.27;;
1509;SDS011;746;48.688;9.428;2024-01-15T14:40:27;2.63;;;2.53;;
1509;SDS011;746;48.688;9.428;2024-01-15T14:42:49;2.63;;;2.53;;
1509;SDS011;746;48.688;9.428;2024-01-15T14:45:11;2.50;;;2.40;;
1509;SDS011;746;48.688;9.428;2024-01-15T14:47:33;2.50;;;2.40;;
1509;SDS011;746;48.688;9.428;2024-01-15T14:49:55;2.60;;;2.50;;
1509;SDS011;746;48.688;9.428;2024-01-15T14:52:19;2.90;;;2.70;;
1509;SDS011;746;48.688;9.428;2024-01-15T14:54:41;2.53;;;2.43;;
1509;SDS011;746;48.688;9.428;2024-01-15T14:57:02;2.70;;;2.60;;
1509;SDS011;746;48.688;9.428;2024-01-15T14:59:24;2.50;;;2.40;;